Terminal Aerodrome Forecast
Issued by NWS

Home | Current Version | Previous Version | Text Only | Print | Product List | Glossary On
Versions: 1 2 3 4 5 6 7 8 9 10 11 12 13 14 15 16 17 18 19 20 21 22 23
000
FTUS43 KAPX 250500 RRA
TAFAPN
TAF
KAPN 250548Z 2506/2606 21003KT P6SM MIFG SCT021
      TEMPO 2506/2508 3/4SM BR SCT002
     FM250900 22007KT P6SM OVC022
     FM251100 25009KT P6SM OVC010
     FM251430 28011G20KT P6SM SCT040
     FM260000 29010G17KT P6SM SCT050=

USA.gov is the U.S. government's official web portal to all federal, state and local government web resources and services.